Terminal Aerodrome Forecast
Issued by NWS La Crosse, WI

Home | Current Version | Previous Version | Text Only | Print | Product List | Glossary On
Versions: 1 2 3 4 5 6 7 8 9 10 11 12 13
000
FTUS43 KARX 271120
TAFRST
TAF
KRST 271120Z 2712/2812 19004KT P6SM BKN150
     FM271600 23007KT P6SM BKN100
     FM272200 34005KT P6SM VCTS BKN050CB
     FM280400 35005KT 4SM BR BKN020=

USA.gov is the U.S. government's official web portal to all federal, state and local government web resources and services.